Agua Escondida, Argentina
Current Conditions -  °F | °C
As of 9:00 PM on Friday 24 Oct 2014 (Local Time) from SCIC Reporting Station
Clear Clear  
Wind Chill: 72°   Ceiling: Unl
Heat Index: 72°   Visibility: 6mi
Dew Point: 43°   Wind: 5mph
Humidity: 35%   Direction: 190°S
Pressure: 29.91"   Gusts: NA
Location:  35.64°S, 67.97°W
Report Text: SCIC 250000Z AUTO 19004KT 160V220 9999 NCD 22/06 Q1013
Loading
Personal Weather Stations






























Interactive Weather Map
Tropical Storm Tracking
New forecast layout! Learn more

10-Day Weather Forecast

Advertisements
Track Severe Weather on mobile